Time;durP1;ratioP1;P1;durP2;ratioP2;P2;SDS_P1;SDS_P2;PMS_P1;PMS_P2;Temp;Humidity;BMP_temperature;BMP_pressure;BME280_temperature;BME280_humidity;BME280_pressure;Samples;Min_cycle;Max_cycle;Signal;HPM_P1;HPM_P2
2021/03/12 00:00:29;;;;;;;0.8;0.8;;;;;;;5.36;87.45508;94643.28;;;;
2021/03/12 00:01:33;;;;;;;0.8;0.8;;;;;;;5.36;87.45508;94643.28;;;;
2021/03/12 00:02:34;;;;;;;0.8;0.8;;;;;;;5.36;87.45508;94643.28;;;;
2021/03/12 00:03:34;;;;;;;0.8;0.8;;;;;;;5.36;87.45508;94643.28;;;;
2021/03/12 00:04:37;;;;;;;0.8;0.8;;;;;;;5.36;87.45508;94643.28;;;;
2021/03/12 00:05:37;;;;;;;0.8;0.8;;;;;;;5.36;87.45508;94643.28;;;;
2021/03/12 00:06:41;;;;;;;0.8;0.8;;;;;;;5.36;87.45508;94643.28;;;;
2021/03/12 00:07:42;;;;;;;0.8;0.8;;;;;;;5.36;87.45508;94643.28;;;;
2021/03/12 00:08:42;;;;;;;0.7;0.7;;;;;;;4.95;89.15039;94625.08;;;;
2021/03/12 00:09:45;;;;;;;0.7;0.7;;;;;;;4.95;89.15039;94625.08;;;;
2021/03/12 00:10:46;;;;;;;0.7;0.7;;;;;;;4.95;89.15039;94625.08;;;;
2021/03/12 00:11:47;;;;;;;0.7;0.7;;;;;;;4.95;89.15039;94625.08;;;;
2021/03/12 00:12:47;;;;;;;0.7;0.7;;;;;;;4.95;89.15039;94625.08;;;;
2021/03/12 00:13:48;;;;;;;0.7;0.7;;;;;;;4.95;89.15039;94625.08;;;;
2021/03/12 00:14:49;;;;;;;0.7;0.7;;;;;;;4.95;89.15039;94625.08;;;;
2021/03/12 00:15:50;;;;;;;0.7;0.7;;;;;;;4.95;89.15039;94625.08;;;;
2021/03/12 00:16:51;;;;;;;0.7;0.7;;;;;;;4.95;89.15039;94625.08;;;;
2021/03/12 00:17:51;;;;;;;0.7;0.7;;;;;;;4.95;89.15039;94625.08;;;;
2021/03/12 00:18:52;;;;;;;0.6;0.6;;;;;;;4.76;90.55957;94642.11;;;;
2021/03/12 00:19:52;;;;;;;0.6;0.6;;;;;;;4.76;90.55957;94642.11;;;;
2021/03/12 00:20:53;;;;;;;0.6;0.6;;;;;;;4.76;90.55957;94642.11;;;;
2021/03/12 00:21:53;;;;;;;0.6;0.6;;;;;;;4.76;90.55957;94642.11;;;;
2021/03/12 00:22:54;;;;;;;0.6;0.6;;;;;;;4.76;90.55957;94642.11;;;;
2021/03/12 00:23:55;;;;;;;0.6;0.6;;;;;;;4.76;90.55957;94642.11;;;;
2021/03/12 00:24:56;;;;;;;0.6;0.6;;;;;;;4.76;90.55957;94642.11;;;;
2021/03/12 00:25:56;;;;;;;0.6;0.6;;;;;;;4.76;90.55957;94642.11;;;;
2021/03/12 00:26:59;;;;;;;0.6;0.6;;;;;;;4.76;90.55957;94642.11;;;;
2021/03/12 00:27:59;;;;;;;0.6;0.6;;;;;;;4.76;90.55957;94642.11;;;;
2021/03/12 00:29:00;;;;;;;0.6;0.6;;;;;;;4.76;90.55957;94642.11;;;;
2021/03/12 00:30:01;;;;;;;1.3;0.6;;;;;;;4.67;91.3418;94641.55;;;;
2021/03/12 00:31:03;;;;;;;1.3;0.6;;;;;;;4.67;91.3418;94641.55;;;;
2021/03/12 00:32:05;;;;;;;1.3;0.6;;;;;;;4.67;91.3418;94641.55;;;;
2021/03/12 00:33:07;;;;;;;1.3;0.6;;;;;;;4.67;91.3418;94641.55;;;;
2021/03/12 00:34:08;;;;;;;1.3;0.6;;;;;;;4.67;91.3418;94641.55;;;;
2021/03/12 00:35:08;;;;;;;1.3;0.6;;;;;;;4.67;91.3418;94641.55;;;;
2021/03/12 00:36:10;;;;;;;1.3;0.6;;;;;;;4.67;91.3418;94641.55;;;;
2021/03/12 00:37:11;;;;;;;1.3;0.6;;;;;;;4.67;91.3418;94641.55;;;;
2021/03/12 00:38:11;;;;;;;1.3;0.6;;;;;;;4.67;91.3418;94641.55;;;;
2021/03/12 00:39:13;;;;;;;1.3;0.6;;;;;;;4.67;91.3418;94641.55;;;;
2021/03/12 00:40:13;;;;;;;1.5;0.75;;;;;;;4.64;91.78516;94653.58;;;;
2021/03/12 00:41:17;;;;;;;1.5;0.75;;;;;;;4.64;91.78516;94653.58;;;;
2021/03/12 00:42:18;;;;;;;1.5;0.75;;;;;;;4.64;91.78516;94653.58;;;;
2021/03/12 00:43:19;;;;;;;1.5;0.75;;;;;;;4.64;91.78516;94653.58;;;;
2021/03/12 00:44:21;;;;;;;1.5;0.75;;;;;;;4.64;91.78516;94653.58;;;;
2021/03/12 00:45:21;;;;;;;1.5;0.75;;;;;;;4.64;91.78516;94653.58;;;;
2021/03/12 00:46:24;;;;;;;1.5;0.75;;;;;;;4.64;91.78516;94653.58;;;;
2021/03/12 00:47:25;;;;;;;1.5;0.75;;;;;;;4.64;91.78516;94653.58;;;;
2021/03/12 00:48:25;;;;;;;1.5;0.75;;;;;;;4.64;91.78516;94653.58;;;;
2021/03/12 00:49:26;;;;;;;1.5;0.75;;;;;;;4.64;91.78516;94653.58;;;;
2021/03/12 00:50:27;;;;;;;0.7;0.7;;;;;;;4.63;92.41309;94664.9;;;;
2021/03/12 00:51:32;;;;;;;0.7;0.7;;;;;;;4.63;92.41309;94664.9;;;;
2021/03/12 00:52:33;;;;;;;0.7;0.7;;;;;;;4.63;92.41309;94664.9;;;;
2021/03/12 00:53:33;;;;;;;0.7;0.7;;;;;;;4.63;92.41309;94664.9;;;;
2021/03/12 00:54:34;;;;;;;0.7;0.7;;;;;;;4.63;92.41309;94664.9;;;;
2021/03/12 00:55:35;;;;;;;0.7;0.7;;;;;;;4.63;92.41309;94664.9;;;;
2021/03/12 00:56:36;;;;;;;0.7;0.7;;;;;;;4.63;92.41309;94664.9;;;;
2021/03/12 00:57:36;;;;;;;0.7;0.7;;;;;;;4.63;92.41309;94664.9;;;;
2021/03/12 00:58:37;;;;;;;0.7;0.7;;;;;;;4.63;92.41309;94664.9;;;;
2021/03/12 00:59:37;;;;;;;0.7;0.7;;;;;;;4.63;92.41309;94664.9;;;;
2021/03/12 01:00:38;;;;;;;0.7;0.7;;;;;;;4.63;92.41309;94664.9;;;;
2021/03/12 01:01:39;;;;;;;0.8;0.7;;;;;;;4.61;92.86035;94641.06;;;;
2021/03/12 01:02:40;;;;;;;0.8;0.7;;;;;;;4.61;92.86035;94641.06;;;;
2021/03/12 01:03:40;;;;;;;0.8;0.7;;;;;;;4.61;92.86035;94641.06;;;;
2021/03/12 01:04:41;;;;;;;0.8;0.7;;;;;;;4.61;92.86035;94641.06;;;;
2021/03/12 01:05:41;;;;;;;0.8;0.7;;;;;;;4.61;92.86035;94641.06;;;;
2021/03/12 01:06:42;;;;;;;0.8;0.7;;;;;;;4.61;92.86035;94641.06;;;;
2021/03/12 01:07:42;;;;;;;0.8;0.7;;;;;;;4.61;92.86035;94641.06;;;;
2021/03/12 01:08:44;;;;;;;0.8;0.7;;;;;;;4.61;92.86035;94641.06;;;;
2021/03/12 01:09:45;;;;;;;0.8;0.7;;;;;;;4.61;92.86035;94641.06;;;;
2021/03/12 01:10:45;;;;;;;0.8;0.7;;;;;;;4.61;92.86035;94641.06;;;;
2021/03/12 01:11:46;;;;;;;0.9;0.7;;;;;;;4.58;93.14648;94628.65;;;;
2021/03/12 01:12:46;;;;;;;0.9;0.7;;;;;;;4.58;93.14648;94628.65;;;;
2021/03/12 01:13:47;;;;;;;0.9;0.7;;;;;;;4.58;93.14648;94628.65;;;;
2021/03/12 01:14:47;;;;;;;0.9;0.7;;;;;;;4.58;93.14648;94628.65;;;;
2021/03/12 01:15:48;;;;;;;0.9;0.7;;;;;;;4.58;93.14648;94628.65;;;;
2021/03/12 01:16:49;;;;;;;0.9;0.7;;;;;;;4.58;93.14648;94628.65;;;;
2021/03/12 01:17:50;;;;;;;0.9;0.7;;;;;;;4.58;93.14648;94628.65;;;;
2021/03/12 01:18:51;;;;;;;0.9;0.7;;;;;;;4.58;93.14648;94628.65;;;;
2021/03/12 01:19:51;;;;;;;0.9;0.7;;;;;;;4.58;93.14648;94628.65;;;;
2021/03/12 01:20:52;;;;;;;0.9;0.7;;;;;;;4.58;93.14648;94628.65;;;;
2021/03/12 01:21:52;;;;;;;0.9;0.7;;;;;;;4.58;93.14648;94628.65;;;;
2021/03/12 01:22:53;;;;;;;1.35;0.6;;;;;;;4.57;93.64746;94636.35;;;;
2021/03/12 01:23:55;;;;;;;1.35;0.6;;;;;;;4.57;93.64746;94636.35;;;;
2021/03/12 01:24:56;;;;;;;1.35;0.6;;;;;;;4.57;93.64746;94636.35;;;;
2021/03/12 01:25:56;;;;;;;1.35;0.6;;;;;;;4.57;93.64746;94636.35;;;;
2021/03/12 01:26:58;;;;;;;1.35;0.6;;;;;;;4.57;93.64746;94636.35;;;;
2021/03/12 01:27:59;;;;;;;1.35;0.6;;;;;;;4.57;93.64746;94636.35;;;;
2021/03/12 01:29:00;;;;;;;1.35;0.6;;;;;;;4.57;93.64746;94636.35;;;;
2021/03/12 01:30:01;;;;;;;1.35;0.6;;;;;;;4.57;93.64746;94636.35;;;;
2021/03/12 01:31:04;;;;;;;1.35;0.6;;;;;;;4.57;93.64746;94636.35;;;;
2021/03/12 01:32:04;;;;;;;1.35;0.6;;;;;;;4.57;93.64746;94636.35;;;;
2021/03/12 01:33:05;;;;;;;0.8;0.8;;;;;;;4.56;94.10938;94646.24;;;;
2021/03/12 01:34:06;;;;;;;0.8;0.8;;;;;;;4.56;94.10938;94646.24;;;;
2021/03/12 01:35:07;;;;;;;0.8;0.8;;;;;;;4.56;94.10938;94646.24;;;;
2021/03/12 01:36:09;;;;;;;0.8;0.8;;;;;;;4.56;94.10938;94646.24;;;;
2021/03/12 01:37:09;;;;;;;0.8;0.8;;;;;;;4.56;94.10938;94646.24;;;;
2021/03/12 01:38:10;;;;;;;0.8;0.8;;;;;;;4.56;94.10938;94646.24;;;;
2021/03/12 01:39:11;;;;;;;0.8;0.8;;;;;;;4.56;94.10938;94646.24;;;;
2021/03/12 01:40:12;;;;;;;0.8;0.8;;;;;;;4.56;94.10938;94646.24;;;;
2021/03/12 01:41:15;;;;;;;0.8;0.8;;;;;;;4.56;94.10938;94646.24;;;;
2021/03/12 01:42:16;;;;;;;0.8;0.8;;;;;;;4.56;94.10938;94646.24;;;;
2021/03/12 01:43:17;;;;;;;0.8;0.8;;;;;;;4.56;94.10938;94646.24;;;;
2021/03/12 01:44:18;;;;;;;0.75;0.75;;;;;;;4.54;94.50391;94641.63;;;;
2021/03/12 01:45:20;;;;;;;0.75;0.75;;;;;;;4.54;94.50391;94641.63;;;;
2021/03/12 01:46:23;;;;;;;0.75;0.75;;;;;;;4.54;94.50391;94641.63;;;;
2021/03/12 01:47:23;;;;;;;0.75;0.75;;;;;;;4.54;94.50391;94641.63;;;;
2021/03/12 01:48:24;;;;;;;0.75;0.75;;;;;;;4.54;94.50391;94641.63;;;;
2021/03/12 01:49:25;;;;;;;0.75;0.75;;;;;;;4.54;94.50391;94641.63;;;;
2021/03/12 01:50:26;;;;;;;0.75;0.75;;;;;;;4.54;94.50391;94641.63;;;;
2021/03/12 01:51:27;;;;;;;0.75;0.75;;;;;;;4.54;94.50391;94641.63;;;;
2021/03/12 01:52:28;;;;;;;0.75;0.75;;;;;;;4.54;94.50391;94641.63;;;;
2021/03/12 01:53:28;;;;;;;0.75;0.75;;;;;;;4.54;94.50391;94641.63;;;;
2021/03/12 01:54:33;;;;;;;0.8;0.6;;;;;;;4.46;94.70313;94662.03;;;;
2021/03/12 01:55:34;;;;;;;0.8;0.6;;;;;;;4.46;94.70313;94662.03;;;;
2021/03/12 01:56:35;;;;;;;0.8;0.6;;;;;;;4.46;94.70313;94662.03;;;;
2021/03/12 01:57:36;;;;;;;0.8;0.6;;;;;;;4.46;94.70313;94662.03;;;;
2021/03/12 01:58:36;;;;;;;0.8;0.6;;;;;;;4.46;94.70313;94662.03;;;;
2021/03/12 01:59:37;;;;;;;0.8;0.6;;;;;;;4.46;94.70313;94662.03;;;;
2021/03/12 02:00:38;;;;;;;0.8;0.6;;;;;;;4.46;94.70313;94662.03;;;;
2021/03/12 02:01:38;;;;;;;0.8;0.6;;;;;;;4.46;94.70313;94662.03;;;;
2021/03/12 02:02:39;;;;;;;0.8;0.6;;;;;;;4.46;94.70313;94662.03;;;;
2021/03/12 02:03:40;;;;;;;0.8;0.6;;;;;;;4.46;94.70313;94662.03;;;;
2021/03/12 02:04:41;;;;;;;0.8;0.6;;;;;;;4.46;94.70313;94662.03;;;;
2021/03/12 02:05:41;;;;;;;0.5;0.5;;;;;;;4.35;95.89648;94652.42;;;;
2021/03/12 02:06:42;;;;;;;0.5;0.5;;;;;;;4.35;95.89648;94652.42;;;;
2021/03/12 02:07:42;;;;;;;0.5;0.5;;;;;;;4.35;95.89648;94652.42;;;;
2021/03/12 02:08:43;;;;;;;0.5;0.5;;;;;;;4.35;95.89648;94652.42;;;;
2021/03/12 02:09:44;;;;;;;0.5;0.5;;;;;;;4.35;95.89648;94652.42;;;;
2021/03/12 02:10:44;;;;;;;0.5;0.5;;;;;;;4.35;95.89648;94652.42;;;;
2021/03/12 02:11:46;;;;;;;0.5;0.5;;;;;;;4.35;95.89648;94652.42;;;;
2021/03/12 02:12:56;;;;;;;0.5;0.5;;;;;;;4.35;95.89648;94652.42;;;;
2021/03/12 02:14:04;;;;;;;0.5;0.5;;;;;;;4.35;95.89648;94652.42;;;;
2021/03/12 02:15:11;;;;;;;0.5;0.5;;;;;;;4.35;95.89648;94652.42;;;;
2021/03/12 02:16:15;;;;;;;1;0.7;;;;;;;4.23;96.37207;94647.42;;;;
2021/03/12 02:17:20;;;;;;;1;0.7;;;;;;;4.23;96.37207;94647.42;;;;
2021/03/12 02:18:25;;;;;;;1;0.7;;;;;;;4.23;96.37207;94647.42;;;;
2021/03/12 02:19:31;;;;;;;1;0.7;;;;;;;4.23;96.37207;94647.42;;;;
2021/03/12 02:20:47;;;;;;;1;0.7;;;;;;;4.23;96.37207;94647.42;;;;
2021/03/12 02:21:52;;;;;;;1;0.7;;;;;;;4.23;96.37207;94647.42;;;;
2021/03/12 02:22:55;;;;;;;1;0.7;;;;;;;4.23;96.37207;94647.42;;;;
2021/03/12 02:24:08;;;;;;;1;0.7;;;;;;;4.23;96.37207;94647.42;;;;
2021/03/12 02:25:15;;;;;;;1;0.7;;;;;;;4.23;96.37207;94647.42;;;;
2021/03/12 02:26:18;;;;;;;1;0.7;;;;;;;4.23;96.37207;94647.42;;;;
2021/03/12 02:27:28;;;;;;;0.7;0.55;;;;;;;4.11;96.6709;94649.96;;;;
2021/03/12 02:28:28;;;;;;;0.7;0.55;;;;;;;4.11;96.6709;94649.96;;;;
2021/03/12 02:29:30;;;;;;;0.7;0.55;;;;;;;4.11;96.6709;94649.96;;;;
2021/03/12 02:30:33;;;;;;;0.7;0.55;;;;;;;4.11;96.6709;94649.96;;;;
2021/03/12 02:31:35;;;;;;;0.7;0.55;;;;;;;4.11;96.6709;94649.96;;;;
2021/03/12 02:32:37;;;;;;;0.7;0.55;;;;;;;4.11;96.6709;94649.96;;;;
2021/03/12 02:33:41;;;;;;;0.7;0.55;;;;;;;4.11;96.6709;94649.96;;;;
2021/03/12 02:34:43;;;;;;;0.7;0.55;;;;;;;4.11;96.6709;94649.96;;;;
2021/03/12 02:35:46;;;;;;;0.7;0.55;;;;;;;4.11;96.6709;94649.96;;;;
2021/03/12 02:36:47;;;;;;;0.7;0.55;;;;;;;4.11;96.6709;94649.96;;;;
2021/03/12 02:37:52;;;;;;;1.35;0.8;;;;;;;4.03;96.96777;94662.62;;;;
2021/03/12 02:38:55;;;;;;;1.35;0.8;;;;;;;4.03;96.96777;94662.62;;;;
2021/03/12 02:39:57;;;;;;;1.35;0.8;;;;;;;4.03;96.96777;94662.62;;;;
2021/03/12 02:40:59;;;;;;;1.35;0.8;;;;;;;4.03;96.96777;94662.62;;;;
2021/03/12 02:42:02;;;;;;;1.35;0.8;;;;;;;4.03;96.96777;94662.62;;;;
2021/03/12 02:43:04;;;;;;;1.35;0.8;;;;;;;4.03;96.96777;94662.62;;;;
2021/03/12 02:44:06;;;;;;;1.35;0.8;;;;;;;4.03;96.96777;94662.62;;;;
2021/03/12 02:45:08;;;;;;;1.35;0.8;;;;;;;4.03;96.96777;94662.62;;;;
2021/03/12 02:46:11;;;;;;;1.35;0.8;;;;;;;4.03;96.96777;94662.62;;;;
2021/03/12 02:47:15;;;;;;;1.35;0.8;;;;;;;4.03;96.96777;94662.62;;;;
2021/03/12 02:48:21;;;;;;;1.2;0.5;;;;;;;4.03;97.42676;94657.81;;;;
2021/03/12 02:49:22;;;;;;;1.2;0.5;;;;;;;4.03;97.42676;94657.81;;;;
2021/03/12 02:50:24;;;;;;;1.2;0.5;;;;;;;4.03;97.42676;94657.81;;;;
2021/03/12 02:51:25;;;;;;;1.2;0.5;;;;;;;4.03;97.42676;94657.81;;;;
2021/03/12 02:52:26;;;;;;;1.2;0.5;;;;;;;4.03;97.42676;94657.81;;;;
2021/03/12 02:53:27;;;;;;;1.2;0.5;;;;;;;4.03;97.42676;94657.81;;;;
2021/03/12 02:54:28;;;;;;;1.2;0.5;;;;;;;4.03;97.42676;94657.81;;;;
2021/03/12 02:55:30;;;;;;;1.2;0.5;;;;;;;4.03;97.42676;94657.81;;;;
2021/03/12 02:56:30;;;;;;;1.2;0.5;;;;;;;4.03;97.42676;94657.81;;;;
2021/03/12 02:57:31;;;;;;;1.2;0.5;;;;;;;4.03;97.42676;94657.81;;;;
2021/03/12 02:58:32;;;;;;;1.45;0.75;;;;;;;3.91;97.37988;94666.16;;;;
2021/03/12 02:59:34;;;;;;;1.45;0.75;;;;;;;3.91;97.37988;94666.16;;;;
2021/03/12 03:00:35;;;;;;;1.45;0.75;;;;;;;3.91;97.37988;94666.16;;;;
2021/03/12 03:01:36;;;;;;;1.45;0.75;;;;;;;3.91;97.37988;94666.16;;;;
2021/03/12 03:02:37;;;;;;;1.45;0.75;;;;;;;3.91;97.37988;94666.16;;;;
2021/03/12 03:03:38;;;;;;;1.45;0.75;;;;;;;3.91;97.37988;94666.16;;;;
2021/03/12 03:04:40;;;;;;;1.45;0.75;;;;;;;3.91;97.37988;94666.16;;;;
2021/03/12 03:05:42;;;;;;;1.45;0.75;;;;;;;3.91;97.37988;94666.16;;;;
2021/03/12 03:06:43;;;;;;;1.45;0.75;;;;;;;3.91;97.37988;94666.16;;;;
2021/03/12 03:07:44;;;;;;;1.45;0.75;;;;;;;3.91;97.37988;94666.16;;;;
2021/03/12 03:08:48;;;;;;;1.45;0.75;;;;;;;3.91;97.37988;94666.16;;;;
2021/03/12 03:09:49;;;;;;;1;0.9;;;;;;;3.66;97.99219;94666.94;;;;
2021/03/12 03:10:51;;;;;;;1;0.9;;;;;;;3.66;97.99219;94666.94;;;;
2021/03/12 03:11:53;;;;;;;1;0.9;;;;;;;3.66;97.99219;94666.94;;;;
2021/03/12 03:12:56;;;;;;;1;0.9;;;;;;;3.66;97.99219;94666.94;;;;
2021/03/12 03:13:56;;;;;;;1;0.9;;;;;;;3.66;97.99219;94666.94;;;;
2021/03/12 03:14:58;;;;;;;1;0.9;;;;;;;3.66;97.99219;94666.94;;;;
2021/03/12 03:16:02;;;;;;;1;0.9;;;;;;;3.66;97.99219;94666.94;;;;
2021/03/12 03:17:05;;;;;;;1;0.9;;;;;;;3.66;97.99219;94666.94;;;;
2021/03/12 03:18:08;;;;;;;1;0.9;;;;;;;3.66;97.99219;94666.94;;;;
2021/03/12 03:19:10;;;;;;;1;0.9;;;;;;;3.66;97.99219;94666.94;;;;
2021/03/12 03:20:11;;;;;;;0.6;0.6;;;;;;;3.55;98.46777;94687.18;;;;
2021/03/12 03:21:15;;;;;;;0.6;0.6;;;;;;;3.55;98.46777;94687.18;;;;
2021/03/12 03:22:16;;;;;;;0.6;0.6;;;;;;;3.55;98.46777;94687.18;;;;
2021/03/12 03:23:18;;;;;;;0.6;0.6;;;;;;;3.55;98.46777;94687.18;;;;
2021/03/12 03:24:18;;;;;;;0.6;0.6;;;;;;;3.55;98.46777;94687.18;;;;
2021/03/12 03:25:19;;;;;;;0.6;0.6;;;;;;;3.55;98.46777;94687.18;;;;
2021/03/12 03:26:19;;;;;;;0.6;0.6;;;;;;;3.55;98.46777;94687.18;;;;
2021/03/12 03:27:20;;;;;;;0.6;0.6;;;;;;;3.55;98.46777;94687.18;;;;
2021/03/12 03:28:21;;;;;;;0.6;0.6;;;;;;;3.55;98.46777;94687.18;;;;
2021/03/12 03:29:23;;;;;;;0.6;0.6;;;;;;;3.55;98.46777;94687.18;;;;
2021/03/12 03:30:24;;;;;;;0.6;0.6;;;;;;;3.55;98.46777;94687.18;;;;
2021/03/12 03:31:25;;;;;;;0.7;0.7;;;;;;;3.44;99.11328;94686.38;;;;
2021/03/12 03:32:25;;;;;;;0.7;0.7;;;;;;;3.44;99.11328;94686.38;;;;
2021/03/12 03:33:26;;;;;;;0.7;0.7;;;;;;;3.44;99.11328;94686.38;;;;
2021/03/12 03:34:27;;;;;;;0.7;0.7;;;;;;;3.44;99.11328;94686.38;;;;
2021/03/12 03:35:27;;;;;;;0.7;0.7;;;;;;;3.44;99.11328;94686.38;;;;
2021/03/12 03:36:28;;;;;;;0.7;0.7;;;;;;;3.44;99.11328;94686.38;;;;
2021/03/12 03:37:29;;;;;;;0.7;0.7;;;;;;;3.44;99.11328;94686.38;;;;
2021/03/12 03:38:30;;;;;;;0.7;0.7;;;;;;;3.44;99.11328;94686.38;;;;
2021/03/12 03:39:31;;;;;;;0.7;0.7;;;;;;;3.44;99.11328;94686.38;;;;
2021/03/12 03:40:31;;;;;;;0.7;0.7;;;;;;;3.44;99.11328;94686.38;;;;
2021/03/12 03:41:32;;;;;;;2.25;1;;;;;;;3.54;99.54199;94687.3;;;;
2021/03/12 03:42:34;;;;;;;2.25;1;;;;;;;3.54;99.54199;94687.3;;;;
2021/03/12 03:43:36;;;;;;;2.25;1;;;;;;;3.54;99.54199;94687.3;;;;
2021/03/12 03:44:39;;;;;;;2.25;1;;;;;;;3.54;99.54199;94687.3;;;;
2021/03/12 03:45:44;;;;;;;2.25;1;;;;;;;3.54;99.54199;94687.3;;;;
2021/03/12 03:46:45;;;;;;;2.25;1;;;;;;;3.54;99.54199;94687.3;;;;
2021/03/12 03:47:48;;;;;;;2.25;1;;;;;;;3.54;99.54199;94687.3;;;;
2021/03/12 03:48:49;;;;;;;2.25;1;;;;;;;3.54;99.54199;94687.3;;;;
2021/03/12 03:49:50;;;;;;;2.25;1;;;;;;;3.54;99.54199;94687.3;;;;
2021/03/12 03:50:51;;;;;;;2.25;1;;;;;;;3.54;99.54199;94687.3;;;;
2021/03/12 03:51:53;;;;;;;1.35;0.85;;;;;;;3.64;99.47168;94695.19;;;;
2021/03/12 03:52:55;;;;;;;1.35;0.85;;;;;;;3.64;99.47168;94695.19;;;;
2021/03/12 03:53:56;;;;;;;1.35;0.85;;;;;;;3.64;99.47168;94695.19;;;;
2021/03/12 03:54:57;;;;;;;1.35;0.85;;;;;;;3.64;99.47168;94695.19;;;;
2021/03/12 03:55:59;;;;;;;1.35;0.85;;;;;;;3.64;99.47168;94695.19;;;;
2021/03/12 03:57:01;;;;;;;1.35;0.85;;;;;;;3.64;99.47168;94695.19;;;;
2021/03/12 03:58:03;;;;;;;1.35;0.85;;;;;;;3.64;99.47168;94695.19;;;;
2021/03/12 03:59:04;;;;;;;1.35;0.85;;;;;;;3.64;99.47168;94695.19;;;;
2021/03/12 04:00:06;;;;;;;1.35;0.85;;;;;;;3.64;99.47168;94695.19;;;;
2021/03/12 04:01:08;;;;;;;1.35;0.85;;;;;;;3.64;99.47168;94695.19;;;;
2021/03/12 04:02:09;;;;;;;1.35;0.85;;;;;;;3.64;99.47168;94695.19;;;;
2021/03/12 04:03:12;;;;;;;2.05;1;;;;;;;3.88;99.19141;94702.62;;;;
2021/03/12 04:04:14;;;;;;;2.05;1;;;;;;;3.88;99.19141;94702.62;;;;
2021/03/12 04:05:15;;;;;;;2.05;1;;;;;;;3.88;99.19141;94702.62;;;;
2021/03/12 04:06:17;;;;;;;2.05;1;;;;;;;3.88;99.19141;94702.62;;;;
2021/03/12 04:07:18;;;;;;;2.05;1;;;;;;;3.88;99.19141;94702.62;;;;
2021/03/12 04:08:20;;;;;;;2.05;1;;;;;;;3.88;99.19141;94702.62;;;;
2021/03/12 04:09:21;;;;;;;2.05;1;;;;;;;3.88;99.19141;94702.62;;;;
2021/03/12 04:10:23;;;;;;;2.05;1;;;;;;;3.88;99.19141;94702.62;;;;
2021/03/12 04:11:24;;;;;;;2.05;1;;;;;;;3.88;99.19141;94702.62;;;;
2021/03/12 04:12:24;;;;;;;2.05;1;;;;;;;3.88;99.19141;94702.62;;;;
2021/03/12 04:13:26;;;;;;;1.45;0.7;;;;;;;4.09;98.83301;94731.23;;;;
2021/03/12 04:14:27;;;;;;;1.45;0.7;;;;;;;4.09;98.83301;94731.23;;;;
2021/03/12 04:15:28;;;;;;;1.45;0.7;;;;;;;4.09;98.83301;94731.23;;;;
2021/03/12 04:16:29;;;;;;;1.45;0.7;;;;;;;4.09;98.83301;94731.23;;;;
2021/03/12 04:17:31;;;;;;;1.45;0.7;;;;;;;4.09;98.83301;94731.23;;;;
2021/03/12 04:18:32;;;;;;;1.45;0.7;;;;;;;4.09;98.83301;94731.23;;;;
2021/03/12 04:19:33;;;;;;;1.45;0.7;;;;;;;4.09;98.83301;94731.23;;;;
2021/03/12 04:20:35;;;;;;;1.45;0.7;;;;;;;4.09;98.83301;94731.23;;;;
2021/03/12 04:21:35;;;;;;;1.45;0.7;;;;;;;4.09;98.83301;94731.23;;;;
2021/03/12 04:22:38;;;;;;;1.45;0.7;;;;;;;4.09;98.83301;94731.23;;;;
2021/03/12 04:23:40;;;;;;;1.45;0.7;;;;;;;4.09;98.83301;94731.23;;;;
2021/03/12 04:24:41;;;;;;;2.8;0.9;;;;;;;4.33;98.64648;94747.51;;;;
2021/03/12 04:25:44;;;;;;;2.8;0.9;;;;;;;4.33;98.64648;94747.51;;;;
2021/03/12 04:26:46;;;;;;;2.8;0.9;;;;;;;4.33;98.64648;94747.51;;;;
2021/03/12 04:27:47;;;;;;;2.8;0.9;;;;;;;4.33;98.64648;94747.51;;;;
2021/03/12 04:28:48;;;;;;;2.8;0.9;;;;;;;4.33;98.64648;94747.51;;;;
2021/03/12 04:29:48;;;;;;;2.8;0.9;;;;;;;4.33;98.64648;94747.51;;;;
2021/03/12 04:30:50;;;;;;;2.8;0.9;;;;;;;4.33;98.64648;94747.51;;;;
2021/03/12 04:31:51;;;;;;;2.8;0.9;;;;;;;4.33;98.64648;94747.51;;;;
2021/03/12 04:32:52;;;;;;;2.8;0.9;;;;;;;4.33;98.64648;94747.51;;;;
2021/03/12 04:33:53;;;;;;;2.8;0.9;;;;;;;4.33;98.64648;94747.51;;;;
2021/03/12 04:34:54;;;;;;;1.85;0.9;;;;;;;4.38;98.30078;94772.25;;;;
2021/03/12 04:35:56;;;;;;;1.85;0.9;;;;;;;4.38;98.30078;94772.25;;;;
2021/03/12 04:36:56;;;;;;;1.85;0.9;;;;;;;4.38;98.30078;94772.25;;;;
2021/03/12 04:37:58;;;;;;;1.85;0.9;;;;;;;4.38;98.30078;94772.25;;;;
2021/03/12 04:38:58;;;;;;;1.85;0.9;;;;;;;4.38;98.30078;94772.25;;;;
2021/03/12 04:40:00;;;;;;;1.85;0.9;;;;;;;4.38;98.30078;94772.25;;;;
2021/03/12 04:41:01;;;;;;;1.85;0.9;;;;;;;4.38;98.30078;94772.25;;;;
2021/03/12 04:42:03;;;;;;;1.85;0.9;;;;;;;4.38;98.30078;94772.25;;;;
2021/03/12 04:43:05;;;;;;;1.85;0.9;;;;;;;4.38;98.30078;94772.25;;;;
2021/03/12 04:44:08;;;;;;;1.85;0.9;;;;;;;4.38;98.30078;94772.25;;;;
2021/03/12 04:45:10;;;;;;;1.8;0.9;;;;;;;4.39;98.33496;94775.23;;;;
2021/03/12 04:46:13;;;;;;;1.8;0.9;;;;;;;4.39;98.33496;94775.23;;;;
2021/03/12 04:47:13;;;;;;;1.8;0.9;;;;;;;4.39;98.33496;94775.23;;;;
2021/03/12 04:48:14;;;;;;;1.8;0.9;;;;;;;4.39;98.33496;94775.23;;;;
2021/03/12 04:49:16;;;;;;;1.8;0.9;;;;;;;4.39;98.33496;94775.23;;;;
2021/03/12 04:50:18;;;;;;;1.8;0.9;;;;;;;4.39;98.33496;94775.23;;;;
2021/03/12 04:51:19;;;;;;;1.8;0.9;;;;;;;4.39;98.33496;94775.23;;;;
2021/03/12 04:52:20;;;;;;;1.8;0.9;;;;;;;4.39;98.33496;94775.23;;;;
2021/03/12 04:53:21;;;;;;;1.8;0.9;;;;;;;4.39;98.33496;94775.23;;;;
2021/03/12 04:54:21;;;;;;;1.8;0.9;;;;;;;4.39;98.33496;94775.23;;;;
2021/03/12 04:55:23;;;;;;;1.8;0.9;;;;;;;4.39;98.33496;94775.23;;;;
2021/03/12 04:56:24;;;;;;;1.7;1;;;;;;;4.31;98.20215;94804.85;;;;
2021/03/12 04:57:25;;;;;;;1.7;1;;;;;;;4.31;98.20215;94804.85;;;;
2021/03/12 04:58:25;;;;;;;1.7;1;;;;;;;4.31;98.20215;94804.85;;;;
2021/03/12 04:59:26;;;;;;;1.7;1;;;;;;;4.31;98.20215;94804.85;;;;
2021/03/12 05:00:27;;;;;;;1.7;1;;;;;;;4.31;98.20215;94804.85;;;;
2021/03/12 05:01:29;;;;;;;1.7;1;;;;;;;4.31;98.20215;94804.85;;;;
2021/03/12 05:02:29;;;;;;;1.7;1;;;;;;;4.31;98.20215;94804.85;;;;
2021/03/12 05:03:30;;;;;;;1.7;1;;;;;;;4.31;98.20215;94804.85;;;;
2021/03/12 05:04:30;;;;;;;1.7;1;;;;;;;4.31;98.20215;94804.85;;;;
2021/03/12 05:05:32;;;;;;;1.7;1;;;;;;;4.31;98.20215;94804.85;;;;
2021/03/12 05:06:34;;;;;;;2.25;1.1;;;;;;;4.12;98.56543;94775;;;;
2021/03/12 05:07:38;;;;;;;2.25;1.1;;;;;;;4.12;98.56543;94775;;;;
2021/03/12 05:08:40;;;;;;;2.25;1.1;;;;;;;4.12;98.56543;94775;;;;
2021/03/12 05:09:43;;;;;;;2.25;1.1;;;;;;;4.12;98.56543;94775;;;;
2021/03/12 05:10:44;;;;;;;2.25;1.1;;;;;;;4.12;98.56543;94775;;;;
2021/03/12 05:11:56;;;;;;;2.25;1.1;;;;;;;4.12;98.56543;94775;;;;
2021/03/12 05:12:57;;;;;;;2.25;1.1;;;;;;;4.12;98.56543;94775;;;;
2021/03/12 05:13:57;;;;;;;2.25;1.1;;;;;;;4.12;98.56543;94775;;;;
2021/03/12 05:14:58;;;;;;;2.25;1.1;;;;;;;4.12;98.56543;94775;;;;
2021/03/12 05:15:59;;;;;;;2.25;1.1;;;;;;;4.12;98.56543;94775;;;;
2021/03/12 05:16:59;;;;;;;2.25;1.1;;;;;;;4.12;98.56543;94775;;;;
2021/03/12 05:18:00;;;;;;;1.9;1.15;;;;;;;3.8;98.71387;94799.38;;;;
2021/03/12 05:19:01;;;;;;;1.9;1.15;;;;;;;3.8;98.71387;94799.38;;;;
2021/03/12 05:20:01;;;;;;;1.9;1.15;;;;;;;3.8;98.71387;94799.38;;;;
2021/03/12 05:21:04;;;;;;;1.9;1.15;;;;;;;3.8;98.71387;94799.38;;;;
2021/03/12 05:22:04;;;;;;;1.9;1.15;;;;;;;3.8;98.71387;94799.38;;;;
2021/03/12 05:23:05;;;;;;;1.9;1.15;;;;;;;3.8;98.71387;94799.38;;;;
2021/03/12 05:24:05;;;;;;;1.9;1.15;;;;;;;3.8;98.71387;94799.38;;;;
2021/03/12 05:25:07;;;;;;;1.9;1.15;;;;;;;3.8;98.71387;94799.38;;;;
2021/03/12 05:26:10;;;;;;;1.9;1.15;;;;;;;3.8;98.71387;94799.38;;;;
2021/03/12 05:27:11;;;;;;;1.9;1.15;;;;;;;3.8;98.71387;94799.38;;;;
2021/03/12 05:28:11;;;;;;;3.95;1;;;;;;;3.49;99.14453;94795.19;;;;
2021/03/12 05:29:12;;;;;;;3.95;1;;;;;;;3.49;99.14453;94795.19;;;;
2021/03/12 05:30:12;;;;;;;3.95;1;;;;;;;3.49;99.14453;94795.19;;;;
2021/03/12 05:31:14;;;;;;;3.95;1;;;;;;;3.49;99.14453;94795.19;;;;
2021/03/12 05:32:15;;;;;;;3.95;1;;;;;;;3.49;99.14453;94795.19;;;;
2021/03/12 05:33:15;;;;;;;3.95;1;;;;;;;3.49;99.14453;94795.19;;;;
2021/03/12 05:34:16;;;;;;;3.95;1;;;;;;;3.49;99.14453;94795.19;;;;
2021/03/12 05:35:16;;;;;;;3.95;1;;;;;;;3.49;99.14453;94795.19;;;;
2021/03/12 05:36:17;;;;;;;3.95;1;;;;;;;3.49;99.14453;94795.19;;;;
2021/03/12 05:37:17;;;;;;;3.95;1;;;;;;;3.49;99.14453;94795.19;;;;
2021/03/12 05:38:18;;;;;;;3.95;1;;;;;;;3.49;99.14453;94795.19;;;;
2021/03/12 05:39:19;;;;;;;1.25;1.15;;;;;;;3.28;99.97168;94804.27;;;;
2021/03/12 05:40:20;;;;;;;1.25;1.15;;;;;;;3.28;99.97168;94804.27;;;;
2021/03/12 05:41:21;;;;;;;1.25;1.15;;;;;;;3.28;99.97168;94804.27;;;;
2021/03/12 05:42:22;;;;;;;1.25;1.15;;;;;;;3.28;99.97168;94804.27;;;;
2021/03/12 05:43:24;;;;;;;1.25;1.15;;;;;;;3.28;99.97168;94804.27;;;;
2021/03/12 05:44:25;;;;;;;1.25;1.15;;;;;;;3.28;99.97168;94804.27;;;;
2021/03/12 05:45:26;;;;;;;1.25;1.15;;;;;;;3.28;99.97168;94804.27;;;;
2021/03/12 05:46:26;;;;;;;1.25;1.15;;;;;;;3.28;99.97168;94804.27;;;;
2021/03/12 05:47:27;;;;;;;1.25;1.15;;;;;;;3.28;99.97168;94804.27;;;;
2021/03/12 05:48:29;;;;;;;1.25;1.15;;;;;;;3.28;99.97168;94804.27;;;;
2021/03/12 05:49:30;;;;;;;1.2;1.1;;;;;;;3.27;100;94823.07;;;;
2021/03/12 05:50:33;;;;;;;1.2;1.1;;;;;;;3.27;100;94823.07;;;;
2021/03/12 05:51:34;;;;;;;1.2;1.1;;;;;;;3.27;100;94823.07;;;;
2021/03/12 05:52:35;;;;;;;1.2;1.1;;;;;;;3.27;100;94823.07;;;;
2021/03/12 05:53:35;;;;;;;1.2;1.1;;;;;;;3.27;100;94823.07;;;;
2021/03/12 05:54:36;;;;;;;1.2;1.1;;;;;;;3.27;100;94823.07;;;;
2021/03/12 05:55:37;;;;;;;1.2;1.1;;;;;;;3.27;100;94823.07;;;;
2021/03/12 05:56:38;;;;;;;1.2;1.1;;;;;;;3.27;100;94823.07;;;;
2021/03/12 05:57:39;;;;;;;1.2;1.1;;;;;;;3.27;100;94823.07;;;;
2021/03/12 05:58:40;;;;;;;1.2;1.1;;;;;;;3.27;100;94823.07;;;;
2021/03/12 05:59:40;;;;;;;1.2;1.1;;;;;;;3.27;100;94823.07;;;;
2021/03/12 06:00:42;;;;;;;4.6;1.4;;;;;;;3.5;100;94839.51;;;;
2021/03/12 06:01:42;;;;;;;4.6;1.4;;;;;;;3.5;100;94839.51;;;;
2021/03/12 06:02:43;;;;;;;4.6;1.4;;;;;;;3.5;100;94839.51;;;;
2021/03/12 06:03:43;;;;;;;4.6;1.4;;;;;;;3.5;100;94839.51;;;;
2021/03/12 06:04:44;;;;;;;4.6;1.4;;;;;;;3.5;100;94839.51;;;;